Time;durP1;ratioP1;P1;durP2;ratioP2;P2;SDS_P1;SDS_P2;PMS_P1;PMS_P2;Temp;Humidity;BMP_temperature;BMP_pressure;BME280_temperature;BME280_humidity;BME280_pressure;Samples;Min_cycle;Max_cycle;Signal;HPM_P1;HPM_P2
2021/07/22 00:01:44;;;;;;;8.52;6.78;;;;;;;18.70;nan;101286.06;5004344;28;20049;-79
2021/07/22 00:04:09;;;;;;;12.18;7.80;;;;;;;18.72;nan;101285.13;5002446;28;20096;-78
2021/07/22 00:06:34;;;;;;;10.27;7.15;;;;;;;18.71;nan;101280.69;5022618;28;20042;-79
2021/07/22 00:09:00;;;;;;;11.40;6.68;;;;;;;18.73;nan;101284.22;5003989;28;20056;-79
2021/07/22 00:11:25;;;;;;;11.15;7.47;;;;;;;18.73;nan;101286.91;5021031;28;20046;-79
2021/07/22 00:13:50;;;;;;;10.90;7.85;;;;;;;18.72;nan;101285.13;5004714;28;20038;-79
2021/07/22 00:16:17;;;;;;;10.30;7.75;;;;;;;18.65;nan;101280.84;5001573;28;20033;-79
2021/07/22 00:18:42;;;;;;;10.15;7.55;;;;;;;18.59;nan;101287.25;5002984;28;20042;-79
2021/07/22 00:21:08;;;;;;;12.10;8.32;;;;;;;18.47;nan;101284.03;5006657;28;20081;-79
2021/07/22 00:23:33;;;;;;;14.30;8.25;;;;;;;18.37;nan;101278.94;5003283;28;20042;-80
2021/07/22 00:26:05;;;;;;;10.63;8.10;;;;;;;18.46;nan;101280.47;5021836;28;20038;-79
2021/07/22 00:28:30;;;;;;;;;;;;;;;18.41;nan;101282.41;5002444;28;20061;-79
2021/07/22 00:30:56;;;;;;;13.43;7.95;;;;;;;18.36;nan;101282.50;4986656;28;19933;-79
2021/07/22 00:33:22;;;;;;;21.17;8.27;;;;;;;18.32;nan;101286.19;5001160;28;20044;-79
2021/07/22 00:35:47;;;;;;;12.35;7.07;;;;;;;18.32;nan;101285.34;5018309;28;20049;-79
2021/07/22 00:38:14;;;;;;;11.90;7.65;;;;;;;18.37;nan;101288.75;5020580;28;20041;-79
2021/07/22 00:40:44;;;;;;;12.20;8.25;;;;;;;18.40;nan;101286.88;5001627;28;20058;-79
2021/07/22 00:43:10;;;;;;;10.75;7.65;;;;;;;18.33;nan;101287.94;5003442;28;20118;-79
2021/07/22 00:45:36;;;;;;;10.20;7.40;;;;;;;18.37;nan;101289.63;4999421;28;20045;-79
2021/07/22 00:48:02;;;;;;;10.45;7.53;;;;;;;18.43;nan;101287.72;5017889;28;20041;-79
2021/07/22 00:50:31;;;;;;;11.10;8.23;;;;;;;18.48;nan;101285.81;5021271;28;20030;-79
2021/07/22 00:52:58;;;;;;;10.63;7.50;;;;;;;18.44;nan;101284.13;5012259;28;20045;-79
2021/07/22 00:55:27;;;;;;;12.73;7.72;;;;;;;18.33;nan;101279.94;4988005;28;20055;-79
2021/07/22 00:57:54;;;;;;;11.90;7.38;;;;;;;18.22;nan;101282.00;5004130;28;20038;-79
2021/07/22 01:00:20;;;;;;;9.70;7.20;;;;;;;18.30;nan;101280.00;4985008;28;20030;-79
2021/07/22 01:02:46;;;;;;;12.50;7.18;;;;;;;18.31;nan;101278.22;5020722;28;20034;-79
2021/07/22 01:05:11;;;;;;;9.23;7.07;;;;;;;18.34;nan;101279.03;5002962;28;20030;-79
2021/07/22 01:07:37;;;;;;;10.63;8.02;;;;;;;18.32;nan;101275.50;5019754;28;20034;-79
2021/07/22 01:10:06;;;;;;;12.48;8.20;;;;;;;18.26;nan;101278.38;5003499;28;20030;-79
2021/07/22 01:12:32;;;;;;;10.50;7.68;;;;;;;18.31;nan;101284.47;5002938;28;20046;-79
2021/07/22 01:14:57;;;;;;;10.68;7.40;;;;;;;18.31;nan;101273.78;5022473;28;20059;-79
2021/07/22 01:17:32;;;;;;;10.73;7.03;;;;;;;18.31;nan;101276.44;5002269;28;20030;-79
2021/07/22 01:20:01;;;;;;;11.40;7.68;;;;;;;18.25;nan;101273.03;5004720;28;20037;-79
2021/07/22 01:22:26;;;;;;;9.43;7.43;;;;;;;18.22;nan;101276.66;5001807;28;20067;-79
2021/07/22 01:24:52;;;;;;;10.52;7.30;;;;;;;18.23;nan;101270.41;5020781;28;20029;-79
2021/07/22 01:27:18;;;;;;;11.20;7.50;;;;;;;18.27;nan;101277.44;5001311;28;20386;-79
2021/07/22 01:29:51;;;;;;;12.63;8.18;;;;;;;18.28;nan;101271.16;5001715;28;20040;-79
2021/07/22 01:32:18;;;;;;;10.40;7.78;;;;;;;18.27;nan;101274.75;5022017;28;20100;-79
2021/07/22 01:34:46;;;;;;;12.65;7.55;;;;;;;18.29;nan;101264.91;4982008;28;20243;-79
2021/07/22 01:37:14;;;;;;;11.40;8.07;;;;;;;18.34;nan;101265.66;4997183;28;20049;-79
2021/07/22 01:39:40;;;;;;;12.13;7.68;;;;;;;18.37;nan;101268.25;5004992;28;20056;-79
2021/07/22 01:42:07;;;;;;;12.55;7.88;;;;;;;18.39;nan;101263.75;5018245;28;20022;-79
2021/07/22 01:44:33;;;;;;;11.98;8.02;;;;;;;18.39;nan;101266.44;4999563;28;20030;-79
2021/07/22 01:46:59;;;;;;;9.05;6.63;;;;;;;18.32;nan;101256.81;5001428;28;20049;-79
2021/07/22 01:49:24;;;;;;;9.80;6.53;;;;;;;18.34;nan;101259.44;5020337;28;20030;-79
2021/07/22 01:51:52;;;;;;;10.02;7.68;;;;;;;18.35;nan;101258.53;5002198;28;20034;-79
2021/07/22 01:54:17;;;;;;;11.23;7.53;;;;;;;18.27;nan;101257.84;5002152;28;20048;-79
2021/07/22 01:56:43;;;;;;;11.55;7.28;;;;;;;18.24;nan;101256.13;4984291;28;20034;-79
2021/07/22 01:59:09;;;;;;;9.48;7.03;;;;;;;18.33;nan;101255.00;5003846;28;20022;-79
2021/07/22 02:01:34;;;;;;;10.43;7.50;;;;;;;18.38;nan;101259.31;5001097;28;20046;-79
2021/07/22 02:04:37;;;;;;;9.57;6.57;;;;;;;18.40;nan;101261.94;5004786;28;20038;-79
2021/07/22 02:07:02;;;;;;;10.65;7.10;;;;;;;18.37;nan;101256.69;4992212;28;20031;-79
2021/07/22 02:09:32;;;;;;;12.85;7.80;;;;;;;18.37;nan;101257.56;4984654;28;20090;-79
2021/07/22 02:11:59;;;;;;;10.30;6.90;;;;;;;18.33;nan;101253.22;4994565;28;20037;-79
2021/07/22 02:14:25;;;;;;;10.95;7.53;;;;;;;18.35;nan;101262.06;5018107;28;20074;-79
2021/07/22 02:16:53;;;;;;;12.00;7.07;;;;;;;18.33;nan;101255.00;5002859;28;20042;-79
2021/07/22 02:19:19;;;;;;;10.18;6.93;;;;;;;18.35;nan;101254.06;5001264;28;20022;-79
2021/07/22 02:21:47;;;;;;;9.77;6.65;;;;;;;18.35;nan;101262.06;5002992;28;20083;-79
2021/07/22 02:24:14;;;;;;;8.20;6.30;;;;;;;18.37;nan;101254.91;5003444;28;20531;-78
2021/07/22 02:26:56;;;;;;;12.23;7.05;;;;;;;18.32;nan;101264.81;5001634;28;20037;-78
2021/07/22 02:29:23;;;;;;;10.13;7.70;;;;;;;18.31;nan;101263.09;4988631;28;20033;-79
2021/07/22 02:31:49;;;;;;;10.35;6.88;;;;;;;18.26;nan;101267.69;4995117;28;20034;-78
2021/07/22 02:34:14;;;;;;;10.38;8.13;;;;;;;18.27;nan;101266.75;4991030;28;20034;-79
2021/07/22 02:36:40;;;;;;;8.50;6.40;;;;;;;18.27;nan;101266.75;5020189;28;20046;-78
2021/07/22 02:39:09;;;;;;;11.55;7.20;;;;;;;18.32;nan;101264.81;5003090;28;20068;-79
2021/07/22 02:41:36;;;;;;;10.32;6.88;;;;;;;18.36;nan;101262.94;4993661;28;20129;-80
2021/07/22 02:44:04;;;;;;;9.02;6.07;;;;;;;18.38;nan;101264.66;5006146;28;20033;-80
2021/07/22 02:46:35;;;;;;;8.73;6.40;;;;;;;18.40;nan;101261.94;4954164;28;20386;-80
2021/07/22 02:49:01;;;;;;;10.95;6.82;;;;;;;18.37;nan;101264.72;5004104;28;20068;-79
2021/07/22 02:51:32;;;;;;;12.30;6.93;;;;;;;18.30;nan;101266.66;4988461;28;20034;-80
2021/07/22 02:53:58;;;;;;;9.95;7.32;;;;;;;18.29;nan;101264.03;4987077;28;20522;-80
2021/07/22 02:56:25;;;;;;;9.02;6.85;;;;;;;18.34;nan;101268.34;5001016;28;20026;-80
2021/07/22 02:58:56;;;;;;;9.55;6.78;;;;;;;18.42;nan;101265.47;4988137;28;20030;-80
2021/07/22 03:01:22;;;;;;;9.90;6.50;;;;;;;18.45;nan;101262.72;4990098;28;20049;-80
2021/07/22 03:03:48;;;;;;;8.00;5.97;;;;;;;18.48;nan;101259.06;4987477;28;20045;-80
2021/07/22 03:06:17;;;;;;;13.00;7.53;;;;;;;18.38;nan;101261.09;4989334;28;20398;-80
2021/07/22 03:08:49;;;;;;;12.05;7.75;;;;;;;18.38;nan;101259.31;4983166;28;20030;-80
2021/07/22 03:11:18;;;;;;;9.60;7.47;;;;;;;18.43;nan;101261.00;4989072;28;20030;-80
2021/07/22 03:13:45;;;;;;;9.55;7.28;;;;;;;18.41;nan;101263.69;4986893;28;20500;-80
2021/07/22 03:16:11;;;;;;;10.45;7.20;;;;;;;18.42;nan;101262.78;5005066;28;20061;-80
2021/07/22 03:18:55;;;;;;;11.32;6.50;;;;;;;18.44;nan;101263.59;5003886;28;20128;-80
2021/07/22 03:21:21;;;;;;;8.50;6.18;;;;;;;18.42;nan;101260.13;4987814;28;20034;-80
2021/07/22 03:24:07;;;;;;;8.32;5.95;;;;;;;18.29;nan;101264.91;4999182;28;20053;-80
2021/07/22 03:26:32;;;;;;;11.40;7.22;;;;;;;18.18;nan;101261.63;4988291;28;20477;-80
2021/07/22 03:28:59;;;;;;;8.85;6.40;;;;;;;18.17;nan;101259.88;4986539;28;21043;-80
2021/07/22 03:31:30;;;;;;;11.32;7.78;;;;;;;18.29;nan;101261.38;5006223;28;20443;-79
2021/07/22 03:34:17;;;;;;;10.13;7.05;;;;;;;18.38;nan;101267.31;4983914;28;20037;-80
2021/07/22 03:36:57;;;;;;;13.02;7.25;;;;;;;18.46;nan;101259.09;4986285;28;20043;-80
2021/07/22 03:39:22;;;;;;;12.90;7.50;;;;;;;18.47;nan;101265.31;5005590;28;20034;-80
2021/07/22 03:41:48;;;;;;;10.10;6.90;;;;;;;18.43;nan;101266.34;5005149;28;20067;-80
2021/07/22 03:44:32;;;;;;;13.52;9.00;;;;;;;18.37;nan;101256.69;4984467;28;20424;-79
2021/07/22 03:46:58;;;;;;;10.10;7.45;;;;;;;18.39;nan;101258.41;4988907;28;20026;-79
2021/07/22 03:49:25;;;;;;;12.80;7.63;;;;;;;18.44;nan;101260.06;4986582;28;20027;-80
2021/07/22 03:51:55;;;;;;;13.68;8.02;;;;;;;18.45;nan;101265.38;4988642;28;20034;-80
2021/07/22 03:54:24;;;;;;;10.52;8.45;;;;;;;18.44;nan;101262.72;4985100;28;20030;-80
2021/07/22 03:56:50;;;;;;;12.15;7.03;;;;;;;18.49;nan;101261.69;5003038;28;20497;-79
2021/07/22 03:59:22;;;;;;;9.82;6.90;;;;;;;18.50;nan;101267.94;4981346;28;20030;-81
2021/07/22 04:01:51;;;;;;;10.70;7.15;;;;;;;18.51;nan;101258.97;4988624;28;20030;-80
2021/07/22 04:04:21;;;;;;;11.35;7.45;;;;;;;18.52;nan;101260.72;4993373;28;20038;-80
2021/07/22 04:06:51;;;;;;;10.98;6.95;;;;;;;18.55;nan;101260.66;4988204;28;20030;-80
2021/07/22 04:09:24;;;;;;;10.23;6.90;;;;;;;18.55;nan;101260.66;4985520;28;20034;-80
2021/07/22 04:12:05;;;;;;;10.40;7.20;;;;;;;18.57;nan;101256.13;5006174;28;20043;-80
2021/07/22 04:14:36;;;;;;;11.13;7.80;;;;;;;18.60;nan;101264.97;5008015;28;20145;-80
2021/07/22 04:17:12;;;;;;;10.65;7.80;;;;;;;18.56;nan;101257.06;4991824;28;20030;-79
2021/07/22 04:19:59;;;;;;;13.87;8.10;;;;;;;18.51;nan;101258.97;4988768;28;20038;-79
2021/07/22 04:22:52;;;;;;;12.40;8.27;;;;;;;18.53;nan;101268.72;5001621;28;20050;-80
2021/07/22 04:25:27;;;;;;;13.45;8.48;;;;;;;18.64;nan;101260.41;4983993;28;20030;-79
2021/07/22 04:28:01;;;;;;;12.88;8.05;;;;;;;18.66;nan;101265.72;4983583;28;20026;-80
2021/07/22 04:30:32;;;;;;;11.82;7.88;;;;;;;18.74;nan;101269.91;4987412;28;20034;-79
2021/07/22 04:33:10;;;;;;;10.68;6.75;;;;;;;18.78;nan;101266.25;4984617;28;20044;-80
2021/07/22 04:35:55;;;;;;;10.43;7.95;;;;;;;18.83;nan;101277.69;5004504;28;20049;-81
2021/07/22 04:38:56;;;;;;;11.57;7.70;;;;;;;18.80;nan;101267.09;4929144;29;20040;-80
2021/07/22 04:41:50;;;;;;;10.48;7.53;;;;;;;18.79;nan;101269.81;4983233;28;20129;-80
2021/07/22 04:44:38;;;;;;;13.55;7.60;;;;;;;18.87;nan;101274.97;5001679;28;20054;-81
2021/07/22 04:47:13;;;;;;;13.63;8.55;;;;;;;18.90;nan;101266.84;5010865;28;20066;-81
2021/07/22 04:49:57;;;;;;;14.85;8.82;;;;;;;18.90;nan;101266.84;5014410;28;20508;-80
2021/07/22 04:52:36;;;;;;;10.55;8.00;;;;;;;18.87;nan;101269.59;4994912;28;20182;-80
2021/07/22 04:55:09;;;;;;;19.42;13.25;;;;;;;18.83;nan;101267.00;4991197;28;20026;-80
2021/07/22 04:57:36;;;;;;;12.65;8.73;;;;;;;18.97;nan;101268.44;4969520;28;20034;-80
2021/07/22 05:00:04;;;;;;;11.48;7.47;;;;;;;19.07;nan;101272.56;4979558;28;20027;-80
2021/07/22 05:02:49;;;;;;;12.45;7.80;;;;;;;19.07;nan;101267.19;4991115;28;20031;-80
2021/07/22 05:05:15;;;;;;;11.70;6.95;;;;;;;19.09;nan;101272.53;5004978;28;20030;-80
2021/07/22 05:07:58;;;;;;;12.93;7.53;;;;;;;19.14;nan;101268.78;5007589;28;20128;-80
2021/07/22 05:10:32;;;;;;;9.80;6.78;;;;;;;19.06;nan;101268.13;4999671;28;20054;-81
2021/07/22 05:13:14;;;;;;;9.20;6.47;;;;;;;19.04;nan;101270.84;4991212;28;20118;-80
2021/07/22 05:15:54;;;;;;;13.55;8.32;;;;;;;19.07;nan;101269.00;4979945;28;20022;-81
2021/07/22 05:18:32;;;;;;;10.73;8.20;;;;;;;19.04;nan;101259.28;4976129;28;20038;-80
2021/07/22 05:21:22;;;;;;;12.68;8.65;;;;;;;19.10;nan;101268.91;4975180;28;20067;-80
2021/07/22 05:24:01;;;;;;;11.80;7.85;;;;;;;19.20;nan;101260.59;4979443;28;20042;-80
2021/07/22 05:26:37;;;;;;;11.13;7.65;;;;;;;19.35;nan;101259.22;4991775;28;20492;-80
2021/07/22 05:29:14;;;;;;;10.40;7.47;;;;;;;19.39;nan;101265.38;4992805;28;20077;-81
2021/07/22 05:31:44;;;;;;;11.85;8.10;;;;;;;19.42;nan;101265.28;4990217;28;20049;-81
2021/07/22 05:34:28;;;;;;;14.90;8.93;;;;;;;19.52;nan;101271.19;5002970;28;20072;-81
2021/07/22 05:37:12;;;;;;;11.35;7.85;;;;;;;19.60;nan;101264.69;4990811;28;20041;-80
2021/07/22 05:39:43;;;;;;;10.30;7.63;;;;;;;19.66;nan;101263.63;4991782;28;20034;-81
2021/07/22 05:42:08;;;;;;;10.63;7.47;;;;;;;19.68;nan;101268.03;4990789;28;20105;-81
2021/07/22 05:44:33;;;;;;;13.88;8.23;;;;;;;19.73;nan;101269.66;4988918;28;20050;-80
2021/07/22 05:46:59;;;;;;;12.40;8.35;;;;;;;19.65;nan;101270.78;5007953;28;20235;-81
2021/07/22 05:49:24;;;;;;;13.70;8.30;;;;;;;19.66;nan;101266.28;5005204;28;20576;-80
2021/07/22 05:51:49;;;;;;;13.98;9.68;;;;;;;19.75;nan;101268.69;5008467;28;20483;-80
2021/07/22 05:54:14;;;;;;;16.35;8.75;;;;;;;19.82;nan;101264.91;5003908;28;20165;-81
2021/07/22 05:56:40;;;;;;;15.25;8.13;;;;;;;19.92;nan;101276.19;5009290;28;20467;-80
2021/07/22 05:59:05;;;;;;;13.07;8.60;;;;;;;19.92;nan;101281.53;5007493;28;20034;-80
2021/07/22 06:01:31;;;;;;;12.35;8.70;;;;;;;19.95;nan;101276.09;4990271;28;20038;-81
2021/07/22 06:03:56;;;;;;;11.95;8.30;;;;;;;19.98;nan;101269.75;5009969;28;20113;-81
2021/07/22 06:06:22;;;;;;;14.60;8.63;;;;;;;19.97;nan;101279.59;4994284;28;20042;-80
2021/07/22 06:08:48;;;;;;;14.45;8.80;;;;;;;19.91;nan;101286.03;5009348;28;20051;-80
2021/07/22 06:11:13;;;;;;;11.02;8.27;;;;;;;19.87;nan;101275.47;5015308;28;20049;-81
2021/07/22 06:13:39;;;;;;;14.75;7.70;;;;;;;19.97;nan;101273.38;5008045;28;20499;-81
2021/07/22 06:16:12;;;;;;;12.27;8.18;;;;;;;20.07;nan;101275.69;5008351;28;20037;-81
2021/07/22 06:18:41;;;;;;;10.55;7.60;;;;;;;20.08;nan;101272.06;5005381;28;20069;-80
2021/07/22 06:21:11;;;;;;;12.15;7.78;;;;;;;20.17;nan;101273.53;4951695;28;20058;-81
2021/07/22 06:23:37;;;;;;;10.73;7.63;;;;;;;20.19;nan;101273.50;4971432;28;20241;-81
2021/07/22 06:26:02;;;;;;;12.55;8.57;;;;;;;20.20;nan;101273.47;5007651;28;20042;-81
2021/07/22 06:28:29;;;;;;;12.15;7.60;;;;;;;20.23;nan;101276.03;4988462;28;20420;-81
2021/07/22 06:30:55;;;;;;;12.15;7.57;;;;;;;20.24;nan;101267.06;5007252;28;20039;-80
2021/07/22 06:33:21;;;;;;;11.93;7.53;;;;;;;20.33;nan;101279.25;5006534;28;20041;-81
2021/07/22 06:35:47;;;;;;;13.82;8.55;;;;;;;20.28;nan;101282.13;4988515;28;20100;-81
2021/07/22 06:38:13;;;;;;;16.38;8.82;;;;;;;20.35;nan;101269.34;4990170;28;20531;-81
2021/07/22 06:40:40;;;;;;;10.45;7.40;;;;;;;20.51;nan;101270.59;4986940;28;20110;-80
2021/07/22 06:43:12;;;;;;;10.35;7.32;;;;;;;20.63;nan;101273.78;5008362;28;20029;-80
2021/07/22 06:45:41;;;;;;;;;;;;;;;20.62;nan;101272.00;4987625;28;20096;-81
2021/07/22 06:48:06;;;;;;;15.52;7.03;;;;;;;20.63;nan;101277.34;5007379;28;20012;-80
2021/07/22 06:50:32;;;;;;;10.48;6.68;;;;;;;20.60;nan;101276.59;5003856;28;20044;-81
2021/07/22 06:52:58;;;;;;;11.25;6.80;;;;;;;20.60;nan;101269.41;4977154;28;20120;-80
2021/07/22 06:55:23;;;;;;;13.40;7.03;;;;;;;20.76;nan;101270.59;5007718;28;20049;-81
2021/07/22 06:57:48;;;;;;;11.35;7.60;;;;;;;20.90;nan;101272.75;5005526;28;20049;-80
2021/07/22 07:00:14;;;;;;;11.45;7.90;;;;;;;20.93;nan;101275.34;4989151;28;20031;-81
2021/07/22 07:02:40;;;;;;;12.90;7.45;;;;;;;20.96;nan;101271.66;4988969;28;20034;-80
2021/07/22 07:05:06;;;;;;;11.00;7.32;;;;;;;21.08;nan;101278.38;5005422;28;20038;-81
2021/07/22 07:07:31;;;;;;;9.32;7.65;;;;;;;21.19;nan;101281.50;4989700;28;20084;-80
2021/07/22 07:09:57;;;;;;;9.85;7.78;;;;;;;21.22;nan;101284.06;4987203;28;20042;-80
2021/07/22 07:12:22;;;;;;;10.80;7.28;;;;;;;21.28;nan;101280.28;5007683;28;20049;-80
2021/07/22 07:14:47;;;;;;;8.93;6.90;;;;;;;21.35;nan;101277.31;4986513;28;20125;-81
2021/07/22 07:17:13;;;;;;;9.98;7.50;;;;;;;21.41;nan;101274.41;4989682;28;20045;-80
2021/07/22 07:19:38;;;;;;;13.35;7.97;;;;;;;21.34;nan;101283.59;5005242;28;20034;-81
2021/07/22 07:22:03;;;;;;;10.45;7.57;;;;;;;21.33;nan;101281.88;4988659;28;20042;-80
2021/07/22 07:24:29;;;;;;;11.48;7.20;;;;;;;21.37;nan;101275.41;5006129;28;20030;-81
2021/07/22 07:26:54;;;;;;;12.27;7.25;;;;;;;21.56;nan;101283.69;5004399;28;20030;-80
2021/07/22 07:29:20;;;;;;;11.05;7.72;;;;;;;21.70;nan;101275.06;4987798;28;20034;-80
2021/07/22 07:31:45;;;;;;;9.57;7.30;;;;;;;21.88;nan;101273.44;5008123;28;20320;-80
2021/07/22 07:34:11;;;;;;;12.02;7.85;;;;;;;21.89;nan;101276.03;5003424;28;20061;-81
2021/07/22 07:36:41;;;;;;;10.60;6.88;;;;;;;22.07;nan;101278.91;5009879;28;20045;-80
2021/07/22 07:39:06;;;;;;;11.63;7.82;;;;;;;22.09;nan;101268.97;5008500;28;20046;-81
2021/07/22 07:41:32;;;;;;;11.00;7.80;;;;;;;21.99;nan;101275.66;5010366;28;20327;-80
2021/07/22 07:43:57;;;;;;;9.25;7.45;;;;;;;22.03;nan;101275.47;5008295;28;20412;-80
2021/07/22 07:46:22;;;;;;;9.07;7.72;;;;;;;22.22;nan;101267.53;4991775;28;20089;-80
2021/07/22 07:48:48;;;;;;;9.70;7.07;;;;;;;22.26;nan;101274.50;5010680;28;20053;-80
2021/07/22 07:51:15;;;;;;;10.32;7.57;;;;;;;22.30;nan;101260.00;5008075;28;20038;-80
2021/07/22 07:53:40;;;;;;;11.32;7.20;;;;;;;22.47;nan;101271.84;5012106;28;20074;-80
2021/07/22 07:56:05;;;;;;;11.43;7.07;;;;;;;22.64;nan;101269.28;4990047;28;20049;-80
2021/07/22 07:58:31;;;;;;;9.38;6.43;;;;;;;22.74;nan;101276.00;5010132;28;20038;-81
2021/07/22 08:00:56;;;;;;;10.13;6.38;;;;;;;22.90;nan;101273.47;5008337;28;20033;-81
2021/07/22 08:03:22;;;;;;;11.05;6.65;;;;;;;23.00;nan;101265.00;5008877;28;20088;-80
2021/07/22 08:05:47;;;;;;;11.05;7.78;;;;;;;23.08;nan;101271.81;5006360;28;20081;-81
2021/07/22 08:08:13;;;;;;;10.55;7.05;;;;;;;22.97;nan;101268.72;4992025;28;20492;-80
2021/07/22 08:10:41;;;;;;;12.00;7.22;;;;;;;23.03;nan;101265.75;5007895;28;20131;-80
2021/07/22 08:13:11;;;;;;;10.52;7.30;;;;;;;23.25;nan;101264.75;4993508;28;20049;-81
2021/07/22 08:15:43;;;;;;;11.70;8.27;;;;;;;23.35;nan;101261.53;4989945;28;20042;-80
2021/07/22 08:18:09;;;;;;;8.40;6.85;;;;;;;23.46;nan;101258.31;5010571;28;20030;-80
2021/07/22 08:20:35;;;;;;;11.80;7.60;;;;;;;23.59;nan;101254.06;4990586;28;20034;-81
2021/07/22 08:23:00;;;;;;;8.75;7.05;;;;;;;23.65;nan;101260.97;5011357;28;20527;-81
2021/07/22 08:25:25;;;;;;;10.82;8.20;;;;;;;23.77;nan;101255.03;5007301;28;20089;-81
2021/07/22 08:27:51;;;;;;;10.40;7.90;;;;;;;24.03;nan;101263.63;5010268;28;20046;-80
2021/07/22 08:30:16;;;;;;;9.32;6.40;;;;;;;24.20;nan;101260.06;4990711;28;20045;-81
2021/07/22 08:32:42;;;;;;;10.23;7.72;;;;;;;24.19;nan;101258.31;5009175;28;20045;-81
2021/07/22 08:35:07;;;;;;;10.68;6.13;;;;;;;24.18;nan;101262.84;5007877;28;20037;-81
2021/07/22 08:37:33;;;;;;;9.15;6.75;;;;;;;24.37;nan;101251.09;5007977;28;20485;-81
2021/07/22 08:40:02;;;;;;;10.85;7.45;;;;;;;24.30;nan;101255.94;5010881;28;20033;-81
2021/07/22 08:42:35;;;;;;;9.38;7.03;;;;;;;24.39;nan;101254.56;4990812;28;20073;-81
2021/07/22 08:45:01;;;;;;;8.75;6.80;;;;;;;24.44;nan;101252.50;4993622;28;20041;-81
2021/07/22 08:47:26;;;;;;;8.65;6.97;;;;;;;24.47;nan;101246.97;5006955;28;20094;-80
2021/07/22 08:49:52;;;;;;;9.05;7.28;;;;;;;24.55;nan;101243.88;4993550;28;20097;-80
2021/07/22 08:52:18;;;;;;;8.38;6.82;;;;;;;24.34;nan;101251.25;4996159;28;20049;-81
2021/07/22 08:54:43;;;;;;;11.73;7.35;;;;;;;24.39;nan;101250.06;5009279;28;20117;-81
2021/07/22 08:57:10;;;;;;;9.85;7.03;;;;;;;24.63;nan;101242.53;5007867;28;20034;-81
2021/07/22 08:59:36;;;;;;;9.43;7.35;;;;;;;24.70;nan;101237.66;5009407;28;20038;-80
2021/07/22 09:02:02;;;;;;;11.05;7.25;;;;;;;24.64;nan;101238.00;5008257;28;20536;-81
2021/07/22 09:04:28;;;;;;;8.55;6.70;;;;;;;24.57;nan;101239.28;4990571;28;20065;-81
2021/07/22 09:06:54;;;;;;;12.18;7.35;;;;;;;24.90;nan;101233.88;4991544;28;20030;-81
2021/07/22 09:09:19;;;;;;;10.63;7.10;;;;;;;25.17;nan;101236.91;5007473;28;20038;-81
2021/07/22 09:11:56;;;;;;;11.60;7.38;;;;;;;25.19;nan;101235.00;5006766;28;20034;-81
2021/07/22 09:14:24;;;;;;;9.82;6.75;;;;;;;25.40;nan;101237.44;4992253;28;20041;-80
2021/07/22 09:16:50;;;;;;;11.68;7.35;;;;;;;25.29;nan;101232.66;5005669;28;20508;-80
2021/07/22 09:19:32;;;;;;;12.15;8.93;;;;;;;25.69;nan;101227.66;5010481;28;20026;-80
2021/07/22 09:21:58;;;;;;;10.65;7.32;;;;;;;25.90;nan;101231.81;5008917;28;20042;-81
2021/07/22 09:24:24;;;;;;;9.40;7.78;;;;;;;25.94;nan;101221.72;4990343;28;20026;-80
2021/07/22 09:26:53;;;;;;;9.95;7.30;;;;;;;26.05;nan;101224.63;5006649;28;20053;-80
2021/07/22 09:29:18;;;;;;;9.63;6.97;;;;;;;26.17;nan;101223.91;4990071;28;20085;-80
2021/07/22 09:31:45;;;;;;;8.80;6.95;;;;;;;26.32;nan;101222.06;5008771;28;20444;-81
2021/07/22 09:34:24;;;;;;;11.38;8.23;;;;;;;26.37;nan;101219.09;5006178;28;20041;-81
2021/07/22 09:36:50;;;;;;;11.68;8.55;;;;;;;26.36;nan;101220.94;5008395;28;20439;-81
2021/07/22 09:39:28;;;;;;;8.52;7.28;;;;;;;26.53;nan;101222.63;5008491;28;20103;-81
2021/07/22 09:42:05;;;;;;;10.32;7.57;;;;;;;26.46;nan;101213.09;5007752;28;20037;-81
2021/07/22 09:44:38;;;;;;;9.70;7.28;;;;;;;26.69;nan;101209.00;4992051;28;20038;-81
2021/07/22 09:47:05;;;;;;;7.93;6.55;;;;;;;26.59;nan;101214.13;4994102;28;20097;-81
2021/07/22 09:49:33;;;;;;;8.55;6.63;;;;;;;26.14;nan;101215.94;5001331;28;20038;-81
2021/07/22 09:52:02;;;;;;;11.40;7.43;;;;;;;26.16;nan;101219.44;4997426;28;20058;-81
2021/07/22 09:54:35;;;;;;;11.20;7.60;;;;;;;26.27;nan;101215.22;4998083;28;20451;-80
2021/07/22 09:57:02;;;;;;;11.50;7.50;;;;;;;26.47;nan;101209.44;4998876;28;20117;-81
2021/07/22 09:59:29;;;;;;;9.68;7.47;;;;;;;26.75;nan;101207.72;4995849;28;20034;-81
2021/07/22 10:01:59;;;;;;;9.38;6.68;;;;;;;27.04;nan;101206.75;5009854;28;20030;-78
2021/07/22 10:04:29;;;;;;;10.68;7.85;;;;;;;26.92;nan;101207.53;5001057;28;20031;-81
2021/07/22 10:06:56;;;;;;;12.57;7.43;;;;;;;27.08;nan;101205.56;5007545;28;20045;-80
2021/07/22 10:09:23;;;;;;;10.10;7.50;;;;;;;27.24;nan;101201.91;5014793;28;20106;-80
2021/07/22 10:11:49;;;;;;;15.23;9.25;;;;;;;27.38;nan;101203.69;5006229;28;20034;-81
2021/07/22 10:14:17;;;;;;;10.93;8.02;;;;;;;27.46;nan;101206.78;5004964;28;20042;-81
2021/07/22 10:16:43;;;;;;;11.07;8.32;;;;;;;27.37;nan;101197.41;5008738;28;20081;-80
2021/07/22 10:19:11;;;;;;;10.27;7.32;;;;;;;27.54;nan;101202.59;4987456;28;20424;-80
2021/07/22 10:21:37;;;;;;;9.05;7.28;;;;;;;27.74;nan;101203.09;5007064;28;20133;-82
2021/07/22 10:24:05;;;;;;;9.40;7.30;;;;;;;27.46;nan;101198.66;4988168;28;20066;-79
2021/07/22 10:26:32;;;;;;;10.10;7.18;;;;;;;27.24;nan;101191.94;5003802;28;20055;-81
2021/07/22 10:28:58;;;;;;;11.23;8.00;;;;;;;27.20;nan;101193.13;4979843;28;20046;-81
2021/07/22 10:31:24;;;;;;;9.25;7.03;;;;;;;27.29;nan;101186.22;5009799;28;20042;-81
2021/07/22 10:33:49;;;;;;;9.93;8.05;;;;;;;27.27;nan;101185.44;5011737;28;20030;-81
2021/07/22 10:36:17;;;;;;;8.43;7.15;;;;;;;27.63;nan;101184.81;5013100;28;20531;-80
2021/07/22 10:38:44;;;;;;;9.00;7.40;;;;;;;27.59;nan;101183.31;5006052;28;20034;-81
2021/07/22 10:41:29;;;;;;;9.68;7.63;;;;;;;27.48;nan;101173.19;5005741;28;20082;-80
2021/07/22 10:43:54;;;;;;;11.57;8.27;;;;;;;27.58;nan;101175.28;4999866;28;20045;-80
2021/07/22 10:46:20;;;;;;;9.70;8.65;;;;;;;27.89;nan;101168.66;5006935;28;20226;-81
2021/07/22 10:48:46;;;;;;;12.30;8.70;;;;;;;28.07;nan;101166.53;5006926;28;20042;-80
2021/07/22 10:51:12;;;;;;;11.40;9.05;;;;;;;28.41;nan;101165.88;5005431;28;20026;-80
2021/07/22 10:53:38;;;;;;;10.13;8.88;;;;;;;28.41;nan;101162.31;4987191;28;20088;-80
2021/07/22 10:56:05;;;;;;;9.98;7.80;;;;;;;27.58;nan;101170.72;4995515;28;20050;-80
2021/07/22 10:58:45;;;;;;;10.32;8.55;;;;;;;26.92;nan;101175.03;4974195;28;20041;-80
2021/07/22 11:01:11;;;;;;;10.43;7.45;;;;;;;27.09;nan;101165.78;4997138;28;20026;-80
2021/07/22 11:03:36;;;;;;;10.90;9.77;;;;;;;27.08;nan;101170.34;5007403;28;20041;-81
2021/07/22 11:06:06;;;;;;;9.93;8.93;;;;;;;27.24;nan;101155.84;5001350;28;20037;-81
2021/07/22 11:08:33;;;;;;;12.40;9.43;;;;;;;27.45;nan;101156.25;4981790;28;20432;-80
2021/07/22 11:11:03;;;;;;;9.73;8.02;;;;;;;27.48;nan;101154.22;4977971;28;20026;-81
2021/07/22 11:13:34;;;;;;;12.05;8.10;;;;;;;27.26;nan;101152.06;4985403;28;20034;-80
2021/07/22 11:16:01;;;;;;;10.32;8.30;;;;;;;27.04;nan;101157.13;5004324;28;20094;-79
2021/07/22 11:18:39;;;;;;;11.95;9.02;;;;;;;27.05;nan;101154.31;4978920;28;20081;-81
2021/07/22 11:21:05;;;;;;;10.57;9.27;;;;;;;26.92;nan;101161.50;5008947;28;20377;-80
2021/07/22 11:23:30;;;;;;;12.05;9.30;;;;;;;26.97;nan;101148.53;5006849;28;20045;-81
2021/07/22 11:25:55;;;;;;;11.00;9.38;;;;;;;26.89;nan;101148.16;5010908;28;20040;-80
2021/07/22 11:28:25;;;;;;;11.55;9.90;;;;;;;26.61;nan;101141.78;5009026;28;20456;-80
2021/07/22 11:31:05;;;;;;;14.40;9.73;;;;;;;26.87;nan;101145.53;5008003;28;20042;-81
2021/07/22 11:33:32;;;;;;;11.70;9.77;;;;;;;27.30;nan;101145.47;5005624;28;20042;-80
2021/07/22 11:35:59;;;;;;;12.07;9.57;;;;;;;27.53;nan;101138.47;4993556;28;20038;-80
2021/07/22 11:38:25;;;;;;;10.80;9.60;;;;;;;27.76;nan;101136.06;5008342;28;20070;-80
2021/07/22 11:40:54;;;;;;;11.25;8.95;;;;;;;27.81;nan;101142.06;4990258;28;20100;-80
2021/07/22 11:43:36;;;;;;;13.43;11.10;;;;;;;27.75;nan;101139.75;4993580;28;20097;-80
2021/07/22 11:46:04;;;;;;;12.88;10.57;;;;;;;27.85;nan;101135.47;4971662;28;20038;-80